Time;durP1;ratioP1;P1;durP2;ratioP2;P2;SDS_P1;SDS_P2;PMS_P1;PMS_P2;Temp;Humidity;BMP_temperature;BMP_pressure;BME280_temperature;BME280_humidity;BME280_pressure;Samples;Min_cycle;Max_cycle;Signal;HPM_P1;HPM_P2
2022/08/26 00:01:19;;;;;;;;;4.75;4.50;;;;;22.45;56.33;101104.81;5076352;28;45404;-55
2022/08/26 00:03:45;;;;;;;;;3.50;2.25;;;;;22.41;55.78;101106.84;5072696;28;45191;-55
2022/08/26 00:06:11;;;;;;;;;4.00;3.75;;;;;22.40;55.46;101101.63;5072986;27;45328;-56
2022/08/26 00:08:37;;;;;;;;;5.75;4.50;;;;;22.40;56.93;101112.28;5070460;27;46389;-56
2022/08/26 00:11:03;;;;;;;;;2.75;2.75;;;;;22.37;56.69;101105.38;5076613;27;45395;-55
2022/08/26 00:13:29;;;;;;;;;5.50;4.00;;;;;22.34;56.52;101098.41;5075499;27;45384;-56
2022/08/26 00:15:54;;;;;;;;;8.00;5.50;;;;;22.32;57.33;101100.34;5067020;27;45491;-55
2022/08/26 00:18:21;;;;;;;;;6.75;5.00;;;;;22.32;56.02;101100.34;5069185;27;64504;-56
2022/08/26 00:20:47;;;;;;;;;4.25;4.25;;;;;22.34;56.31;101105.56;5079994;27;45372;-56
2022/08/26 00:23:12;;;;;;;;;5.25;4.00;;;;;22.34;55.69;101111.75;5082328;27;45301;-56
2022/08/26 00:25:38;;;;;;;;;5.25;5.25;;;;;22.36;56.46;101111.66;5078144;27;45240;-56
2022/08/26 00:28:04;;;;;;;;;3.25;3.25;;;;;22.34;55.90;101109.09;5070062;28;45325;-55
2022/08/26 00:30:30;;;;;;;;;3.75;3.75;;;;;22.32;57.17;101115.50;5063548;28;45706;-55
2022/08/26 00:32:57;;;;;;;;;6.50;5.25;;;;;22.28;57.01;101111.34;5061557;28;45408;-56
2022/08/26 00:35:23;;;;;;;;;4.25;4.25;;;;;22.25;56.99;101116.88;5081877;27;45547;-56
2022/08/26 00:37:50;;;;;;;;;5.75;4.25;;;;;22.21;57.43;101115.38;5072262;27;45423;-54
2022/08/26 00:40:25;;;;;;;;;7.00;6.25;;;;;22.17;56.80;101112.06;5082089;27;45272;-56
2022/08/26 00:42:51;;;;;;;;;5.25;4.00;;;;;22.20;57.06;101114.50;5054796;28;45520;-55
2022/08/26 00:45:17;;;;;;;;;6.25;3.00;;;;;22.22;56.29;101115.25;5074670;27;45400;-56
2022/08/26 00:47:46;;;;;;;;;7.00;6.00;;;;;22.25;56.50;101116.88;5078686;28;55013;-56
2022/08/26 00:50:15;;;;;;;;;6.75;5.00;;;;;22.26;56.92;101119.41;5046997;28;45657;-56
2022/08/26 00:52:41;;;;;;;;;5.00;4.50;;;;;22.27;56.62;101118.47;5047429;28;45416;-55
2022/08/26 00:55:11;;;;;;;;;6.25;6.25;;;;;22.29;57.20;101118.38;5067498;28;45349;-55
2022/08/26 00:57:36;;;;;;;;;7.50;6.00;;;;;22.26;58.02;101115.91;5040593;28;45290;-55
2022/08/26 01:00:08;;;;;;;;;5.75;4.00;;;;;22.22;57.26;101119.72;5037227;28;45399;-55
2022/08/26 01:02:33;;;;;;;;;6.00;5.75;;;;;22.21;57.21;101118.88;5081715;28;45238;-56
2022/08/26 01:05:01;;;;;;;;;5.25;5.00;;;;;22.18;57.53;101129.75;5066065;28;47523;-55
2022/08/26 01:07:28;;;;;;;;;6.25;5.50;;;;;22.15;57.58;101122.84;5044683;28;45747;-56
2022/08/26 01:09:54;;;;;;;;;7.50;5.75;;;;;22.14;58.12;101122.94;5081518;28;45697;-56
2022/08/26 01:12:20;;;;;;;;;8.25;6.75;;;;;22.10;56.79;101119.63;5060226;28;45328;-54
2022/08/26 01:14:46;;;;;;;;;5.00;5.00;;;;;22.11;57.75;101118.66;5081581;28;45350;-55
2022/08/26 01:17:11;;;;;;;;;8.00;6.00;;;;;22.08;56.93;101126.03;5077436;28;46986;-55
2022/08/26 01:19:41;;;;;;;;;8.50;7.25;;;;;22.08;57.90;101120.69;5073325;28;45251;-56
2022/08/26 01:22:24;;;;;;;;;3.50;2.50;;;;;22.07;58.45;101119.00;5061503;28;45374;-55
2022/08/26 01:24:50;;;;;;;;;6.00;6.00;;;;;22.04;58.30;101109.38;5076164;28;45409;-56
2022/08/26 01:27:17;;;;;;;;;6.75;6.00;;;;;22.00;58.13;101110.56;5056982;28;75625;-53
2022/08/26 01:29:46;;;;;;;;;6.75;5.50;;;;;21.97;58.28;101108.09;5080269;28;45707;-56
2022/08/26 01:32:15;;;;;;;;;5.50;5.25;;;;;21.94;58.38;101111.00;5057807;28;45353;-55
2022/08/26 01:34:41;;;;;;;;;9.50;7.00;;;;;21.91;58.58;101117.38;5045792;28;45521;-56
2022/08/26 01:37:12;;;;;;;;;5.50;5.50;;;;;21.91;58.03;101117.38;5074503;28;45657;-56
2022/08/26 01:39:38;;;;;;;;;11.25;6.75;;;;;21.88;58.95;101119.41;5041640;28;45265;-54
2022/08/26 01:42:06;;;;;;;;;9.00;7.00;;;;;21.86;59.54;101116.84;5062271;28;45422;-56
2022/08/26 01:44:39;;;;;;;;;9.25;8.00;;;;;21.85;58.39;101119.63;5067646;28;45400;-55
2022/08/26 01:47:05;;;;;;;;;6.75;4.75;;;;;21.86;58.40;101121.34;5071423;27;45347;-55
2022/08/26 01:49:31;;;;;;;;;11.50;9.00;;;;;21.84;58.11;101125.91;5061366;27;64929;-56
2022/08/26 01:51:57;;;;;;;;;9.00;8.00;;;;;21.83;58.61;101118.88;5044722;28;49715;-55
2022/08/26 01:54:23;;;;;;;;;12.00;8.25;;;;;21.80;58.69;101117.28;5062251;27;45429;-55
2022/08/26 01:56:50;;;;;;;;;9.50;9.25;;;;;21.74;59.89;101121.22;5060730;28;46361;-55
2022/08/26 01:59:16;;;;;;;;;12.00;9.75;;;;;21.70;58.94;101113.53;5078470;27;45846;-54
2022/08/26 02:01:42;;;;;;;;;8.75;7.00;;;;;21.69;58.48;101122.47;5069400;28;45462;-57
2022/08/26 02:04:10;;;;;;;;;10.50;10.00;;;;;21.70;59.16;101122.38;5058368;28;62276;-56
2022/08/26 02:06:37;;;;;;;;;12.75;9.00;;;;;21.71;59.93;101120.53;5080098;27;45245;-55
2022/08/26 02:09:04;;;;;;;;;12.75;9.00;;;;;21.72;58.94;101131.09;5079882;27;45450;-56
2022/08/26 02:11:30;;;;;;;;;10.00;10.00;;;;;21.70;59.08;101126.84;5078861;28;45323;-56
2022/08/26 02:14:01;;;;;;;;;11.25;10.50;;;;;21.69;59.13;101127.78;5060657;28;45591;-56
2022/08/26 02:16:29;;;;;;;;;12.25;10.50;;;;;21.69;58.33;101123.34;5080505;27;47065;-56
2022/08/26 02:18:54;;;;;;;;;11.75;10.75;;;;;21.74;58.29;101134.53;5062015;28;45544;-55
2022/08/26 02:21:20;;;;;;;;;14.50;12.00;;;;;21.74;59.53;101131.88;5059883;27;45336;-55
2022/08/26 02:23:46;;;;;;;;;10.75;10.00;;;;;21.69;58.86;101135.78;5077712;28;72426;-55
2022/08/26 02:26:14;;;;;;;;;11.00;9.75;;;;;21.69;59.06;101135.78;5073730;28;47004;-55
2022/08/26 02:29:01;;;;;;;;;14.50;11.25;;;;;21.70;58.23;101132.19;5078077;28;45798;-54
2022/08/26 02:31:27;;;;;;;;;14.25;12.75;;;;;21.74;59.02;101141.66;5062852;27;45338;-55
2022/08/26 02:33:52;;;;;;;;;12.75;12.00;;;;;21.74;58.51;101126.56;5079293;28;62031;-55
2022/08/26 02:36:23;;;;;;;;;15.00;12.00;;;;;21.77;58.22;101130.81;5079085;27;71052;-54
2022/08/26 02:38:49;;;;;;;;;13.00;12.25;;;;;21.76;59.69;101132.63;5061937;28;45759;-53
2022/08/26 02:41:15;;;;;;;;;14.25;11.75;;;;;21.75;58.68;101132.72;5079109;27;57110;-56
2022/08/26 02:43:40;;;;;;;;;14.75;13.75;;;;;21.73;59.16;101139.97;5080165;28;45180;-56
2022/08/26 02:46:06;;;;;;;;;11.50;11.25;;;;;21.69;58.71;101123.34;5078629;28;67481;-55
2022/08/26 02:48:31;;;;;;;;;17.50;13.00;;;;;21.69;58.74;101141.13;5071743;27;45281;-56
2022/08/26 02:50:59;;;;;;;;;12.50;11.75;;;;;21.67;59.91;101129.72;5063034;28;45529;-56
2022/08/26 02:53:24;;;;;;;;;14.00;10.50;;;;;21.64;58.67;101133.44;5051480;28;45779;-55
2022/08/26 02:55:49;;;;;;;;;15.75;13.25;;;;;21.59;59.02;101133.75;5076999;27;72851;-55
2022/08/26 02:58:15;;;;;;;;;12.50;12.25;;;;;21.56;58.86;101136.59;5065584;28;66219;-55
2022/08/26 03:00:41;;;;;;;;;19.25;14.50;;;;;21.54;59.66;101135.03;5077766;27;45403;-54
2022/08/26 03:03:06;;;;;;;;;18.25;13.25;;;;;21.53;58.68;101147.50;5049646;28;51668;-54
2022/08/26 03:05:33;;;;;;;;;15.25;14.00;;;;;21.53;58.71;101134.19;5067200;28;46959;-53
2022/08/26 03:07:58;;;;;;;;;15.75;12.75;;;;;21.55;58.95;101137.59;5044699;28;45377;-56
2022/08/26 03:10:24;;;;;;;;;17.50;13.50;;;;;21.57;59.20;101137.47;5078214;27;45385;-56
2022/08/26 03:12:49;;;;;;;;;16.25;14.00;;;;;21.57;59.17;101130.34;5079587;28;45352;-56
2022/08/26 03:15:16;;;;;;;;;15.00;13.00;;;;;21.58;59.38;101137.38;5075518;28;46403;-56
2022/08/26 03:17:42;;;;;;;;;18.25;15.00;;;;;21.56;59.54;101127.78;5051183;28;45855;-56
2022/08/26 03:20:08;;;;;;;;;17.25;14.25;;;;;21.54;59.61;101137.69;5067367;28;45334;-56
2022/08/26 03:22:35;;;;;;;;;22.25;16.50;;;;;21.53;59.69;101138.63;5052592;28;45549;-55
2022/08/26 03:25:02;;;;;;;;;17.25;14.00;;;;;21.49;60.05;101132.66;5073371;28;45350;-56
2022/08/26 03:27:27;;;;;;;;;15.75;12.25;;;;;21.45;59.43;101136.44;5069311;28;45406;-56
2022/08/26 03:32:36;;;;;;;;;19.25;14.50;;;;;21.41;59.82;101125.16;5029566;28;45258;-56
2022/08/26 03:35:02;;;;;;;;;19.75;16.50;;;;;21.43;59.65;101133.03;5026151;28;72759;-56
2022/08/26 03:37:27;;;;;;;;;16.75;13.75;;;;;21.39;60.67;101127.06;5026446;28;45269;-56
2022/08/26 03:39:52;;;;;;;;;22.00;17.75;;;;;21.39;59.71;101126.22;5038694;28;45246;-56
2022/08/26 03:42:18;;;;;;;;;17.00;15.75;;;;;21.39;59.96;101126.22;5038333;28;45408;-56
2022/08/26 03:44:43;;;;;;;;;17.00;14.75;;;;;21.39;59.77;101126.22;5037146;28;73655;-55
2022/08/26 03:47:09;;;;;;;;;18.75;16.75;;;;;21.41;59.77;101130.47;5033235;28;68184;-56
2022/08/26 03:49:34;;;;;;;;;21.25;18.00;;;;;21.43;61.07;101130.38;5029709;28;45364;-56
2022/08/26 03:52:01;;;;;;;;;15.50;15.50;;;;;21.39;60.87;101116.41;5033678;28;45221;-56
2022/08/26 03:54:26;;;;;;;;;17.75;13.75;;;;;21.38;59.94;101124.50;5041927;28;46053;-54
2022/08/26 03:56:52;;;;;;;;;18.50;15.25;;;;;21.37;60.45;101122.78;5031548;28;58965;-55
2022/08/26 03:59:18;;;;;;;;;17.00;15.00;;;;;21.35;60.26;101128.19;5040156;28;45482;-56
2022/08/26 04:01:43;;;;;;;;;17.25;17.00;;;;;21.36;59.76;101123.75;5033257;28;45328;-56
2022/08/26 04:04:08;;;;;;;;;20.50;15.25;;;;;21.38;60.02;101120.03;5037424;28;70955;-56
2022/08/26 04:06:37;;;;;;;;;15.25;13.75;;;;;21.40;60.28;101127.91;5033246;28;72574;-56
2022/08/26 04:09:06;;;;;;;;;14.75;14.75;;;;;21.41;59.60;101130.47;5040305;28;45299;-57
2022/08/26 04:11:34;;;;;;;;;18.50;14.50;;;;;21.44;60.04;101140.06;5031442;28;45378;-56
2022/08/26 04:14:03;;;;;;;;;17.25;16.00;;;;;21.45;60.71;101128.47;5027153;28;46402;-56
2022/08/26 04:16:29;;;;;;;;;17.25;15.00;;;;;21.46;59.60;101129.34;5035167;28;45698;-56
2022/08/26 04:18:55;;;;;;;;;19.50;16.50;;;;;21.47;60.50;101131.91;5028342;28;67516;-56
2022/08/26 04:21:22;;;;;;;;;21.00;17.00;;;;;21.47;60.06;101136.38;5041680;28;45233;-55
2022/08/26 04:23:49;;;;;;;;;22.00;18.75;;;;;21.47;60.36;101139.06;5037409;28;45455;-56
2022/08/26 04:26:17;;;;;;;;;17.25;17.25;;;;;21.48;59.93;101141.63;5041696;28;45464;-55
2022/08/26 04:28:42;;;;;;;;;18.50;16.75;;;;;21.48;60.18;101135.41;5040096;28;45287;-56
2022/08/26 04:31:13;;;;;;;;;16.50;16.50;;;;;21.48;60.06;101136.28;5058022;27;45532;-54
2022/08/26 04:33:39;;;;;;;;;16.00;13.50;;;;;21.49;59.65;101135.31;5079952;28;46077;-54
2022/08/26 04:36:04;;;;;;;;;23.25;16.25;;;;;21.51;60.00;101137.88;5079262;28;45551;-55
2022/08/26 04:38:30;;;;;;;;;21.25;15.50;;;;;21.49;59.82;101142.47;5081768;27;45526;-55
2022/08/26 04:40:56;;;;;;;;;19.25;18.00;;;;;21.49;60.12;101137.13;5069767;27;45471;-55
2022/08/26 04:43:21;;;;;;;;;21.50;16.00;;;;;21.47;59.64;101142.56;5074083;28;46392;-56
2022/08/26 04:45:47;;;;;;;;;29.00;18.50;;;;;21.47;59.79;101144.38;5075223;28;45313;-56
2022/08/26 04:48:12;;;;;;;;;25.75;18.75;;;;;21.45;61.41;101155.09;5080837;27;64394;-56
2022/08/26 04:50:37;;;;;;;;;23.50;21.50;;;;;21.41;60.20;101154.44;5069037;28;70440;-54
2022/08/26 04:53:03;;;;;;;;;21.50;17.50;;;;;21.39;60.07;101148.38;5058925;28;73713;-55
2022/08/26 04:55:29;;;;;;;;;17.50;17.25;;;;;21.38;61.01;101154.63;5062205;28;52539;-56
2022/08/26 04:57:55;;;;;;;;;23.50;17.00;;;;;21.38;60.26;101154.63;5072382;27;45321;-55
2022/08/26 05:00:21;;;;;;;;;24.75;19.25;;;;;21.37;60.48;101147.63;5080404;28;59746;-55
2022/08/26 05:02:46;;;;;;;;;17.00;15.50;;;;;21.43;60.34;101159.66;5056322;28;47204;-56
2022/08/26 05:05:12;;;;;;;;;21.00;17.50;;;;;21.42;60.12;101160.59;5074116;27;45286;-56
2022/08/26 05:07:38;;;;;;;;;18.00;16.75;;;;;21.39;60.04;101160.84;5069480;27;45312;-58
2022/08/26 05:10:05;;;;;;;;;18.25;13.75;;;;;21.37;60.46;101166.25;5069564;27;45520;-56
2022/08/26 05:12:30;;;;;;;;;20.50;16.25;;;;;21.37;60.28;101157.38;5073981;28;46138;-56
2022/08/26 05:14:56;;;;;;;;;24.50;19.25;;;;;21.40;60.33;101167.84;5056315;28;72178;-56
2022/08/26 05:17:21;;;;;;;;;18.50;16.75;;;;;21.42;60.13;101165.94;5067799;27;45411;-54
2022/08/26 05:19:47;;;;;;;;;19.25;16.75;;;;;21.43;60.60;101165.00;5059749;28;62479;-56
2022/08/26 05:22:13;;;;;;;;;17.00;15.00;;;;;21.41;60.50;101173.06;5033799;28;46693;-56
2022/08/26 05:24:38;;;;;;;;;17.75;17.00;;;;;21.43;60.32;101173.81;5079688;27;45344;-58
2022/08/26 05:27:04;;;;;;;;;23.00;17.75;;;;;21.43;61.10;101173.81;5079825;27;45327;-56
2022/08/26 05:29:29;;;;;;;;;21.75;17.00;;;;;21.43;60.05;101181.81;5079732;27;45502;-55
2022/08/26 05:31:55;;;;;;;;;14.25;13.00;;;;;21.43;60.72;101181.81;5060685;28;56870;-53
2022/08/26 05:34:20;;;;;;;;;18.00;16.00;;;;;21.41;60.59;101180.22;5079337;27;69451;-56
2022/08/26 05:36:46;;;;;;;;;20.25;18.00;;;;;21.38;60.91;101183.91;5080309;27;45273;-56
2022/08/26 05:39:11;;;;;;;;;25.00;18.50;;;;;21.37;60.89;101184.91;5081144;27;45288;-53
2022/08/26 05:41:39;;;;;;;;;19.75;17.25;;;;;21.36;60.94;101177.00;5059931;28;65233;-56
2022/08/26 05:44:07;;;;;;;;;23.00;18.25;;;;;21.33;61.18;101188.69;5079440;28;45315;-55
2022/08/26 05:46:33;;;;;;;;;23.50;22.00;;;;;21.32;60.52;101191.44;5076151;27;45305;-55
2022/08/26 05:48:59;;;;;;;;;23.00;17.00;;;;;21.31;60.70;101187.94;5072632;28;45296;-55
2022/08/26 05:51:24;;;;;;;;;31.00;21.50;;;;;21.32;61.50;101202.09;5066991;28;73148;-56
2022/08/26 05:53:50;;;;;;;;;19.50;15.25;;;;;21.31;60.44;101197.75;5062585;28;45359;-56
2022/08/26 05:56:16;;;;;;;;;21.75;18.00;;;;;21.35;60.59;101200.09;5061126;28;45368;-56
2022/08/26 05:58:42;;;;;;;;;20.50;17.50;;;;;21.35;60.21;101194.75;5080874;27;45281;-56
2022/08/26 06:01:18;;;;;;;;;23.25;16.75;;;;;21.42;60.42;101201.44;5066857;28;45543;-55
2022/08/26 06:03:45;;;;;;;;;21.25;19.00;;;;;21.41;60.68;101205.03;5080145;27;45804;-54
2022/08/26 06:06:19;;;;;;;;;22.25;19.25;;;;;21.42;61.06;101220.06;5067968;28;45380;-56
2022/08/26 06:08:45;;;;;;;;;24.25;19.25;;;;;21.41;60.83;101202.38;5080340;27;45341;-56
2022/08/26 06:11:13;;;;;;;;;22.25;18.25;;;;;21.38;61.26;101202.56;5062248;28;46307;-56
2022/08/26 06:13:39;;;;;;;;;19.50;16.00;;;;;21.37;61.52;101206.19;5069040;28;45986;-55
2022/08/26 06:16:08;;;;;;;;;24.25;15.25;;;;;21.37;60.47;101200.00;5081978;27;45323;-56
2022/08/26 06:18:36;;;;;;;;;26.75;17.50;;;;;21.34;61.20;101210.88;5078950;27;45514;-56
2022/08/26 06:21:23;;;;;;;;;14.50;13.25;;;;;21.28;60.64;101204.09;5080143;27;46338;-55
2022/08/26 06:26:36;;;;;;;;;18.00;14.75;;;;;21.22;60.51;101199.19;5080227;27;45230;-56
2022/08/26 06:29:03;;;;;;;;;16.75;15.00;;;;;21.21;60.50;101195.69;5078210;28;45208;-56
2022/08/26 06:31:30;;;;;;;;;17.75;13.25;;;;;21.22;60.23;101208.03;5077647;28;46987;-56
2022/08/26 06:33:55;;;;;;;;;20.00;15.50;;;;;21.24;59.96;101200.78;5079828;28;45832;-56
2022/08/26 06:36:24;;;;;;;;;16.25;13.75;;;;;21.26;59.73;101199.84;5078008;28;46430;-56
2022/08/26 06:38:50;;;;;;;;;17.75;14.00;;;;;21.25;59.56;101199.00;5059121;28;45502;-56
2022/08/26 06:41:17;;;;;;;;;14.50;13.75;;;;;21.22;59.59;101200.03;5059779;28;46208;-56
2022/08/26 06:43:42;;;;;;;;;16.00;13.50;;;;;21.26;59.67;101199.84;5088142;27;45418;-56
2022/08/26 06:46:10;;;;;;;;;16.25;15.75;;;;;21.28;59.89;101195.28;5083561;27;45424;-56
2022/08/26 06:48:36;;;;;;;;;18.25;16.00;;;;;21.31;59.88;101197.75;5071084;27;45462;-53
2022/08/26 06:51:09;;;;;;;;;19.00;17.25;;;;;21.33;59.63;101202.00;5062766;28;46035;-55
2022/08/26 06:53:35;;;;;;;;;21.25;16.75;;;;;21.38;59.58;101201.72;5070786;28;45354;-54
2022/08/26 06:56:03;;;;;;;;;15.00;13.00;;;;;21.42;59.05;101206.75;5070229;27;45481;-55
2022/08/26 06:58:29;;;;;;;;;16.50;15.50;;;;;21.45;59.31;101205.69;5078151;27;45250;-55
2022/08/26 07:00:55;;;;;;;;;17.25;15.25;;;;;21.43;59.58;101212.91;5075172;27;45196;-56
2022/08/26 07:03:21;;;;;;;;;18.50;16.00;;;;;21.43;59.44;101208.44;5052155;28;45418;-55
2022/08/26 07:05:47;;;;;;;;;19.00;14.50;;;;;21.46;58.90;101211.88;5064072;28;45242;-55
2022/08/26 07:08:12;;;;;;;;;15.00;12.75;;;;;21.51;59.29;101215.09;5044777;28;45495;-53
2022/08/26 07:10:38;;;;;;;;;14.50;13.25;;;;;21.55;59.40;101201.50;5048042;28;45982;-56
2022/08/26 07:13:03;;;;;;;;;20.75;15.25;;;;;21.61;59.26;101210.88;5077457;28;72108;-56
2022/08/26 07:15:29;;;;;;;;;20.00;14.25;;;;;21.65;58.85;101209.72;5065721;28;64459;-55
2022/08/26 07:17:54;;;;;;;;;17.75;13.75;;;;;21.69;58.72;101218.34;5050239;28;61337;-55
2022/08/26 07:20:19;;;;;;;;;16.25;14.25;;;;;21.69;58.47;101211.25;5075047;27;56993;-53
2022/08/26 07:22:45;;;;;;;;;16.00;16.00;;;;;21.70;58.67;101210.28;5059878;28;45399;-54
2022/08/26 07:25:10;;;;;;;;;18.00;14.75;;;;;21.72;58.31;101208.34;5093589;27;45653;-56
2022/08/26 07:27:36;;;;;;;;;19.00;15.75;;;;;21.76;58.01;101209.88;5088944;27;45331;-56
2022/08/26 07:30:04;;;;;;;;;18.50;17.00;;;;;21.82;57.97;101211.28;5075484;28;46192;-57
2022/08/26 07:32:31;;;;;;;;;17.75;14.00;;;;;21.87;58.09;101210.94;5065653;28;45839;-54
2022/08/26 07:34:56;;;;;;;;;16.25;14.25;;;;;21.90;57.38;101214.28;5070064;28;45277;-58
2022/08/26 07:37:21;;;;;;;;;14.75;12.75;;;;;21.95;57.18;101212.16;5078458;28;72267;-56
2022/08/26 07:39:47;;;;;;;;;17.00;15.75;;;;;21.98;57.09;101217.28;5047343;28;47102;-55
2022/08/26 07:42:14;;;;;;;;;21.50;14.75;;;;;22.04;57.41;101216.00;5078848;28;45296;-56
2022/08/26 07:44:40;;;;;;;;;18.00;15.00;;;;;22.08;56.88;101221.97;5043245;28;45328;-55
2022/08/26 07:47:07;;;;;;;;;14.50;14.50;;;;;22.12;57.22;101215.50;5049239;28;45498;-56
2022/08/26 07:49:33;;;;;;;;;16.75;14.75;;;;;22.16;56.30;101211.66;5060041;28;47093;-56
2022/08/26 07:51:58;;;;;;;;;16.25;12.25;;;;;22.18;56.67;101215.06;5069882;28;45234;-54
2022/08/26 07:54:23;;;;;;;;;17.50;15.25;;;;;22.23;56.70;101215.63;5047072;28;45274;-56
2022/08/26 07:56:49;;;;;;;;;14.75;13.25;;;;;22.30;56.19;101214.25;5077761;27;61409;-56
2022/08/26 07:59:16;;;;;;;;;12.25;11.00;;;;;22.35;56.10;101213.94;5077861;27;45305;-55
2022/08/26 08:01:42;;;;;;;;;12.75;12.50;;;;;22.37;55.84;101212.88;5067367;28;45903;-52
2022/08/26 08:04:07;;;;;;;;;11.00;11.00;;;;;22.39;55.92;101211.94;5060076;27;45583;-53
2022/08/26 08:06:33;;;;;;;;;10.75;9.25;;;;;22.40;55.25;101213.63;5059999;28;62198;-54
2022/08/26 08:08:59;;;;;;;;;9.75;9.75;;;;;22.40;55.76;101213.63;5071984;28;72505;-55
2022/08/26 08:11:27;;;;;;;;;14.00;12.00;;;;;22.41;55.10;101216.19;5070459;27;45477;-53
2022/08/26 08:13:53;;;;;;;;;11.50;11.50;;;;;22.46;55.43;101214.06;5075120;27;45289;-56
2022/08/26 08:16:18;;;;;;;;;14.50;11.50;;;;;22.56;55.30;101212.47;5052770;28;45411;-56
2022/08/26 08:18:45;;;;;;;;;9.00;9.00;;;;;22.64;55.30;101216.41;5060742;27;70943;-56
2022/08/26 08:21:10;;;;;;;;;16.75;14.00;;;;;22.68;54.91;101210.75;5064486;28;45399;-56
2022/08/26 08:23:35;;;;;;;;;14.75;10.25;;;;;22.71;54.50;101215.84;5043427;28;45221;-56
2022/08/26 08:26:04;;;;;;;;;13.00;12.75;;;;;22.70;54.64;101213.28;5070650;28;45418;-56
2022/08/26 08:28:29;;;;;;;;;10.50;9.50;;;;;22.75;54.33;101216.47;5056338;28;48456;-55
2022/08/26 08:30:55;;;;;;;;;16.50;12.50;;;;;22.82;54.22;101219.56;5074167;27;52515;-55
2022/08/26 08:33:20;;;;;;;;;10.00;9.25;;;;;22.88;53.97;101213.81;5064002;27;45320;-56
2022/08/26 08:35:47;;;;;;;;;13.00;10.75;;;;;22.96;53.88;101221.28;5074208;27;45543;-56
2022/08/26 08:38:12;;;;;;;;;15.50;11.25;;;;;22.97;53.63;101218.50;5063443;28;47260;-56
2022/08/26 08:40:39;;;;;;;;;14.00;12.75;;;;;22.97;54.05;101215.81;5082009;27;45345;-56
2022/08/26 08:43:10;;;;;;;;;11.50;11.50;;;;;22.99;54.17;101216.56;5083472;27;45380;-57
2022/08/26 08:45:43;;;;;;;;;15.50;13.25;;;;;23.03;53.92;101215.38;5090401;27;45355;-56
2022/08/26 08:48:28;;;;;;;;;14.33;13.00;;;;;23.06;54.08;101223.19;5081429;27;45422;-56
2022/08/26 08:50:58;;;;;;;;;17.50;15.00;;;;;23.08;53.56;101221.25;5081160;27;45458;-56
2022/08/26 08:53:33;;;;;;;;;13.00;10.25;;;;;23.10;53.95;101218.47;5063329;27;45409;-56
2022/08/26 08:56:19;;;;;;;;;11.00;9.25;;;;;23.14;53.57;101214.63;5071107;27;45230;-56
2022/08/26 08:59:06;;;;;;;;;15.00;11.25;;;;;23.20;53.49;101218.69;5074432;27;45233;-56
2022/08/26 09:01:50;;;;;;;;;10.75;8.25;;;;;23.26;53.15;101210.22;5052330;28;45385;-57
2022/08/26 09:04:52;;;;;;;;;11.25;10.25;;;;;23.34;53.10;101210.53;5076027;27;45403;-55
2022/08/26 09:07:21;;;;;;;;;11.75;9.25;;;;;23.43;53.22;101214.34;5076556;27;45435;-55
2022/08/26 09:09:54;;;;;;;;;10.25;9.75;;;;;23.49;52.88;101211.19;5081619;28;45363;-55
2022/08/26 09:12:24;;;;;;;;;10.75;10.00;;;;;23.59;52.36;101208.72;5042861;28;45483;-55
2022/08/26 09:14:50;;;;;;;;;11.75;9.75;;;;;23.67;52.08;101214.31;5076717;27;45371;-56
2022/08/26 09:17:46;;;;;;;;;16.50;11.00;;;;;23.75;51.79;101209.25;5079333;27;45354;-56
2022/08/26 09:20:20;;;;;;;;;9.00;9.00;;;;;23.78;52.02;101216.19;5093369;27;47244;-56
2022/08/26 09:22:46;;;;;;;;;7.00;7.00;;;;;23.79;51.55;101215.22;5063365;28;45342;-55
2022/08/26 09:25:13;;;;;;;;;11.00;10.00;;;;;23.79;50.78;101215.22;5066966;27;57847;-54
2022/08/26 09:27:48;;;;;;;;;10.25;7.50;;;;;23.77;50.65;101211.81;5068902;28;45265;-56
2022/08/26 09:30:25;;;;;;;;;12.50;9.00;;;;;23.73;50.83;101205.84;5073478;27;46545;-56
2022/08/26 09:33:00;;;;;;;;;10.50;8.50;;;;;23.72;50.99;101205.97;5076008;27;45256;-56
2022/08/26 09:35:35;;;;;;;;;14.00;8.75;;;;;23.74;51.19;101204.88;5081129;28;45452;-57
2022/08/26 09:38:00;;;;;;;;;12.00;8.25;;;;;23.79;50.91;101204.53;5061134;28;45201;-56
2022/08/26 09:40:29;;;;;;;;;8.00;8.00;;;;;23.84;50.79;101203.25;5079498;28;45220;-56
2022/08/26 09:43:18;;;;;;;;;12.00;8.75;;;;;23.91;50.96;101205.47;5080574;27;45389;-56
2022/08/26 09:45:46;;;;;;;;;13.00;9.00;;;;;23.96;49.90;101201.47;5080268;28;45306;-56
2022/08/26 09:48:28;;;;;;;;;10.50;10.00;;;;;24.01;50.32;101195.75;5073981;27;45253;-56
2022/08/26 09:51:03;;;;;;;;;10.25;10.00;;;;;24.03;49.76;101205.38;5076384;27;45230;-56
2022/08/26 09:53:36;;;;;;;;;7.00;5.75;;;;;24.03;49.49;101204.53;5063010;28;45171;-55
2022/08/26 09:56:16;;;;;;;;;11.00;8.00;;;;;24.01;50.21;101199.28;5032695;27;45466;-55
2022/08/26 09:58:44;;;;;;;;;14.50;11.00;;;;;24.01;50.10;101210.00;5069083;28;45256;-55
2022/08/26 10:01:25;;;;;;;;;13.50;10.25;;;;;24.06;50.14;101212.28;5051066;28;46466;-54
2022/08/26 10:03:51;;;;;;;;;10.50;7.75;;;;;24.14;50.11;101212.56;5057715;28;45443;-55
2022/08/26 10:06:16;;;;;;;;;12.00;9.50;;;;;24.22;49.17;101204.81;5079454;27;57153;-54
2022/08/26 10:08:45;;;;;;;;;9.00;8.00;;;;;24.28;49.48;101199.97;5068027;27;45250;-53
2022/08/26 10:11:17;;;;;;;;;12.25;9.00;;;;;24.39;49.95;101199.97;5062294;28;46138;-55
2022/08/26 10:13:47;;;;;;;;;9.25;9.00;;;;;24.51;48.58;101201.69;5059343;28;45414;-54
2022/08/26 10:16:16;;;;;;;;;6.75;6.75;;;;;24.59;48.44;101201.94;5026704;28;45328;-55
2022/08/26 10:18:47;;;;;;;;;8.25;7.50;;;;;24.65;48.57;101192.59;5057277;28;45272;-55
2022/08/26 10:21:25;;;;;;;;;7.50;6.50;;;;;24.74;48.57;101193.69;5054183;28;46613;-55
2022/08/26 10:23:55;;;;;;;;;9.50;6.25;;;;;24.82;47.68;101189.44;5055531;28;45269;-54
2022/08/26 10:26:26;;;;;;;;;9.00;8.25;;;;;24.96;47.93;101188.31;5062822;28;45388;-54
2022/08/26 10:29:02;;;;;;;;;9.50;6.50;;;;;25.04;45.74;101197.53;5044192;28;45328;-55
2022/08/26 10:31:35;;;;;;;;;6.25;5.50;;;;;25.04;45.39;101193.06;5076916;27;47463;-56
2022/08/26 10:34:00;;;;;;;;;7.50;5.50;;;;;25.00;46.09;101195.13;5060382;28;45277;-55
2022/08/26 10:36:48;;;;;;;;;6.75;6.00;;;;;25.01;46.03;101191.47;5064714;28;45285;-55
2022/08/26 10:39:21;;;;;;;;;6.00;6.00;;;;;25.12;45.84;101187.06;5057922;28;45333;-54
2022/08/26 10:41:49;;;;;;;;;7.50;6.00;;;;;25.18;46.07;101184.75;5049129;28;45430;-55
2022/08/26 10:44:16;;;;;;;;;7.25;7.25;;;;;25.26;45.88;101177.94;5079984;27;45326;-54
2022/08/26 10:46:56;;;;;;;;;9.00;5.00;;;;;25.28;45.82;101174.16;5050300;28;45379;-53
2022/08/26 10:49:22;;;;;;;;;10.50;7.50;;;;;25.32;45.56;101174.75;5061356;27;45418;-50
2022/08/26 10:51:54;;;;;;;;;6.25;4.25;;;;;25.35;45.54;101179.84;5079381;28;46124;-53
2022/08/26 10:54:31;;;;;;;;;9.00;6.50;;;;;25.40;45.40;101188.38;5078385;27;45379;-52
2022/08/26 10:57:13;;;;;;;;;8.00;5.75;;;;;25.42;45.27;101181.06;5069613;27;45412;-51
2022/08/26 10:59:53;;;;;;;;;7.25;7.25;;;;;25.45;45.80;101178.13;5072369;28;45459;-52
2022/08/26 11:02:24;;;;;;;;;7.00;6.75;;;;;25.50;44.46;101170.56;5076171;27;45470;-53
2022/08/26 11:05:03;;;;;;;;;6.25;5.25;;;;;25.53;43.14;101174.78;5079011;28;45317;-56
2022/08/26 11:07:47;;;;;;;;;6.75;6.25;;;;;25.51;44.24;101172.25;5063619;28;45370;-53
2022/08/26 11:10:15;;;;;;;;;6.00;6.00;;;;;25.53;44.74;101173.00;5040745;28;45554;-56
2022/08/26 11:12:40;;;;;;;;;7.50;6.00;;;;;25.56;44.95;101171.88;5071177;27;45964;-57
2022/08/26 11:15:12;;;;;;;;;6.00;5.00;;;;;25.58;43.91;101170.75;5067192;28;45340;-56
2022/08/26 11:17:44;;;;;;;;;8.25;6.50;;;;;25.63;43.96;101175.72;5069890;28;45457;-56
2022/08/26 11:20:10;;;;;;;;;3.00;3.00;;;;;25.66;42.47;101171.97;5075663;27;45495;-56
2022/08/26 11:22:37;;;;;;;;;5.50;5.50;;;;;25.68;41.50;101167.31;5059725;28;46100;-56
2022/08/26 11:25:04;;;;;;;;;4.00;3.25;;;;;25.65;42.45;101163.03;5071707;28;45354;-56